Time;durP1;ratioP1;P1;durP2;ratioP2;P2;SDS_P1;SDS_P2;PMS_P1;PMS_P2;Temp;Humidity;BMP_temperature;BMP_pressure;BME280_temperature;BME280_humidity;BME280_pressure;Samples;Min_cycle;Max_cycle;Signal;HPM_P1;HPM_P2
2022/10/30 05:39:32;;;;;;;12.50;3.90;;;14.20;99.90;;;;;;10840593;23;20048;-77
2022/10/30 05:44:34;;;;;;;10.18;4.32;;;14.20;99.90;;;;;;10238254;28;20412;-78
2022/10/30 05:49:36;;;;;;;11.05;3.80;;;14.20;99.90;;;;;;10256986;29;20039;-77
2022/10/30 05:54:39;;;;;;;13.30;4.43;;;14.10;99.90;;;;;;10275455;28;20059;-77
2022/10/30 05:59:41;;;;;;;15.07;4.93;;;13.90;99.90;;;;;;10262078;28;20114;-76
2022/10/30 06:04:43;;;;;;;14.02;4.80;;;13.80;99.90;;;;;;10275452;28;20456;-79
2022/10/30 06:09:47;;;;;;;11.68;4.85;;;13.90;99.90;;;;;;10276434;28;20847;-80
2022/10/30 06:14:49;;;;;;;15.32;4.00;;;13.90;99.90;;;;;;10264604;28;20050;-79
2022/10/30 06:19:51;;;;;;;12.25;3.92;;;13.90;99.90;;;;;;10256226;28;20044;-77
2022/10/30 06:24:54;;;;;;;11.35;4.07;;;13.80;99.90;;;;;;10262975;28;20109;-77
2022/10/30 06:29:56;;;;;;;14.75;4.50;;;13.90;99.90;;;;;;10245060;28;20048;-78
2022/10/30 06:34:58;;;;;;;13.07;4.25;;;13.90;99.90;;;;;;10272439;28;20455;-76
2022/10/30 06:40:01;;;;;;;13.32;4.57;;;13.90;99.90;;;;;;10274692;28;20056;-75
2022/10/30 06:45:04;;;;;;;11.82;4.35;;;13.80;99.90;;;;;;10255603;28;20103;-76
2022/10/30 06:50:09;;;;;;;12.18;3.88;;;13.80;99.90;;;;;;10269964;28;20072;-77
2022/10/30 06:55:13;;;;;;;10.77;4.00;;;13.90;99.90;;;;;;10277475;28;20129;-78
2022/10/30 07:00:15;;;;;;;9.45;3.85;;;13.80;99.90;;;;;;10254398;28;20094;-77
2022/10/30 07:05:17;;;;;;;10.27;4.07;;;13.90;99.90;;;;;;10234953;29;20051;-77
2022/10/30 07:10:20;;;;;;;12.40;4.30;;;14.00;99.90;;;;;;10285257;28;20051;-80
2022/10/30 07:15:22;;;;;;;11.98;4.88;;;14.00;99.90;;;;;;10263735;28;20442;-77
2022/10/30 07:20:26;;;;;;;10.48;4.95;;;14.10;99.90;;;;;;10250339;28;20056;-80
2022/10/30 07:25:30;;;;;;;12.63;3.97;;;14.00;99.90;;;;;;10218172;28;20052;-78
2022/10/30 07:30:32;;;;;;;10.27;4.18;;;14.00;99.90;;;;;;10285346;28;20050;-80
2022/10/30 07:35:36;;;;;;;9.57;4.30;;;14.10;99.90;;;;;;10274172;28;20079;-78
2022/10/30 07:40:39;;;;;;;12.57;4.40;;;14.20;99.90;;;;;;10274507;28;20079;-77
2022/10/30 07:45:41;;;;;;;12.60;4.75;;;14.20;99.90;;;;;;10281069;28;20043;-76
2022/10/30 07:50:43;;;;;;;55.72;29.25;;;14.30;99.90;;;;;;10287571;28;20097;-77
2022/10/30 07:55:46;;;;;;;43.53;25.90;;;14.40;99.90;;;;;;10266798;28;20121;-79
2022/10/30 08:00:48;;;;;;;18.33;8.18;;;14.50;99.90;;;;;;10254200;29;20059;-78
2022/10/30 08:05:50;;;;;;;15.02;5.05;;;14.50;99.90;;;;;;10274058;28;20055;-79
2022/10/30 08:10:53;;;;;;;13.15;4.75;;;14.60;99.90;;;;;;10243277;29;20433;-78
2022/10/30 08:15:55;;;;;;;11.25;5.43;;;14.70;99.90;;;;;;10243058;28;20540;-78
2022/10/30 08:20:57;;;;;;;15.18;6.20;;;14.70;99.90;;;;;;10253868;28;20070;-79
2022/10/30 08:26:00;;;;;;;12.57;4.82;;;14.70;99.90;;;;;;10290002;28;20054;-78
2022/10/30 08:31:04;;;;;;;12.27;4.70;;;14.90;99.90;;;;;;10264281;28;20385;-76
2022/10/30 08:36:08;;;;;;;10.57;4.57;;;15.00;99.90;;;;;;10262230;28;20051;-79
2022/10/30 08:41:11;;;;;;;11.68;4.50;;;15.10;99.90;;;;;;10305620;28;20051;-76
2022/10/30 08:46:13;;;;;;;12.98;4.38;;;15.20;99.90;;;;;;10253409;28;20086;-77
2022/10/30 08:51:15;;;;;;;12.85;4.65;;;15.30;99.90;;;;;;10217670;29;20425;-79
2022/10/30 08:56:19;;;;;;;12.13;4.45;;;15.40;99.90;;;;;;10217690;29;20134;-78
2022/10/30 09:01:21;;;;;;;13.50;4.60;;;15.50;99.90;;;;;;10226629;29;20150;-78
2022/10/30 09:06:22;;;;;;;11.95;4.40;;;15.60;99.90;;;;;;10251936;29;20051;-78
2022/10/30 09:11:26;;;;;;;11.35;4.63;;;15.70;99.90;;;;;;10272565;28;20059;-79
2022/10/30 09:16:28;;;;;;;13.45;4.93;;;15.70;99.90;;;;;;10291258;28;20098;-78
2022/10/30 09:21:30;;;;;;;11.25;4.38;;;15.90;99.90;;;;;;10295355;28;20051;-77
2022/10/30 09:26:33;;;;;;;13.77;4.32;;;15.90;99.90;;;;;;10291562;28;20047;-77
2022/10/30 09:31:35;;;;;;;11.98;4.28;;;15.90;99.90;;;;;;10260801;28;20043;-78
2022/10/30 09:36:37;;;;;;;16.35;4.88;;;16.00;99.90;;;;;;10258019;28;20146;-77
2022/10/30 09:42:17;;;;;;;12.80;4.65;;;16.10;99.90;;;;;;10292031;28;20046;-80
2022/10/30 09:47:32;;;;;;;15.25;4.65;;;16.30;99.90;;;;;;10294155;28;20055;-80
2022/10/30 09:52:45;;;;;;;12.27;4.25;;;16.40;99.90;;;;;;10290342;28;20154;-78
2022/10/30 09:57:57;;;;;;;14.15;3.85;;;16.70;99.90;;;;;;10292391;28;20084;-76
2022/10/30 10:03:18;;;;;;;13.32;3.70;;;16.80;99.90;;;;;;10263733;28;20106;-78
2022/10/30 10:08:24;;;;;;;9.63;3.65;;;16.90;99.90;;;;;;10285394;28;20113;-80
2022/10/30 10:13:37;;;;;;;9.80;3.33;;;17.10;99.90;;;;;;10255043;28;20082;-78
2022/10/30 10:18:46;;;;;;;12.57;3.10;;;17.20;99.90;;;;;;10265778;28;20485;-78
2022/10/30 10:23:50;;;;;;;12.77;3.75;;;17.40;99.90;;;;;;10255162;28;20397;-79
2022/10/30 10:29:09;;;;;;;8.82;3.17;;;17.60;99.90;;;;;;10272992;28;20524;-78
2022/10/30 10:34:43;;;;;;;15.27;3.50;;;17.70;99.90;;;;;;10247708;29;20086;-79
2022/10/30 10:40:03;;;;;;;17.15;4.10;;;17.80;99.90;;;;;;10251722;28;20111;-79
2022/10/30 10:45:26;;;;;;;15.70;3.70;;;18.00;99.90;;;;;;10213986;28;20083;-78
2022/10/30 10:50:32;;;;;;;8.32;3.05;;;18.10;99.10;;;;;;10231550;28;20465;-79
2022/10/30 10:55:37;;;;;;;10.30;2.83;;;18.30;97.50;;;;;;10232620;28;20445;-79
2022/10/30 11:00:41;;;;;;;10.85;2.70;;;18.50;97.70;;;;;;10226830;28;20142;-79
2022/10/30 11:05:50;;;;;;;8.43;2.95;;;18.60;96.90;;;;;;10247821;28;20047;-77
2022/10/30 11:10:58;;;;;;;11.35;2.70;;;18.70;95.50;;;;;;10306670;28;20058;-79
2022/10/30 11:16:13;;;;;;;6.65;2.15;;;18.90;94.30;;;;;;10254566;28;20086;-79
2022/10/30 11:21:19;;;;;;;7.55;2.47;;;19.20;92.70;;;;;;10253965;28;20054;-77
2022/10/30 11:26:33;;;;;;;6.85;2.42;;;19.40;92.40;;;;;;10256826;29;20074;-76
2022/10/30 11:31:40;;;;;;;7.68;2.10;;;19.70;92.00;;;;;;10261017;29;20102;-78
2022/10/30 11:36:42;;;;;;;8.88;2.47;;;20.00;91.50;;;;;;10259589;29;20055;-78
2022/10/30 11:41:49;;;;;;;8.00;2.17;;;20.10;91.40;;;;;;10255135;29;20478;-76
2022/10/30 11:46:52;;;;;;;6.28;2.03;;;20.30;90.50;;;;;;10256627;29;20067;-79
2022/10/30 11:51:54;;;;;;;5.35;2.00;;;20.60;90.20;;;;;;10254238;29;20047;-77
2022/10/30 11:56:57;;;;;;;7.45;2.30;;;20.80;89.70;;;;;;10288432;28;20105;-79
2022/10/30 12:02:08;;;;;;;8.20;2.22;;;21.00;87.30;;;;;;10267795;29;20110;-78
2022/10/30 12:07:24;;;;;;;8.00;2.40;;;21.30;85.00;;;;;;10267750;29;20047;-78
2022/10/30 12:12:31;;;;;;;9.50;2.30;;;21.40;83.30;;;;;;10265952;29;20075;-76
2022/10/30 12:17:35;;;;;;;7.10;2.30;;;21.70;84.40;;;;;;10255921;28;20068;-76
2022/10/30 12:22:37;;;;;;;7.53;2.53;;;21.80;84.80;;;;;;10254393;29;20097;-78
2022/10/30 12:27:38;;;;;;;8.07;2.08;;;21.90;84.50;;;;;;10256005;29;20047;-78
2022/10/30 12:32:50;;;;;;;8.38;2.15;;;22.10;83.20;;;;;;10254614;29;20066;-79
2022/10/30 12:37:53;;;;;;;6.93;2.15;;;22.30;82.00;;;;;;10255112;29;20086;-77
2022/10/30 12:43:02;;;;;;;7.75;2.30;;;22.50;82.80;;;;;;10253684;28;20516;-77
2022/10/30 12:48:15;;;;;;;6.18;1.90;;;22.70;79.60;;;;;;10252943;29;20055;-78
2022/10/30 12:53:27;;;;;;;6.32;1.95;;;23.00;78.30;;;;;;10252801;29;20055;-77
2022/10/30 12:58:38;;;;;;;5.80;2.10;;;23.30;77.00;;;;;;10272391;28;20055;-77
2022/10/30 13:03:50;;;;;;;7.82;1.90;;;23.70;77.40;;;;;;10254682;29;20559;-76
2022/10/30 13:09:15;;;;;;;5.07;2.08;;;24.10;76.10;;;;;;10252573;28;20110;-76
2022/10/30 13:14:22;;;;;;;7.68;2.20;;;24.50;75.00;;;;;;10257935;29;20086;-78
2022/10/30 13:19:25;;;;;;;6.27;2.00;;;25.00;73.60;;;;;;10251733;29;20094;-77
2022/10/30 13:24:42;;;;;;;6.10;1.90;;;25.60;71.70;;;;;;10251519;29;20090;-79
2022/10/30 13:29:50;;;;;;;7.72;2.40;;;26.40;68.80;;;;;;10254829;28;20062;-80
2022/10/30 13:35:01;;;;;;;6.18;2.03;;;28.80;65.00;;;;;;10263820;28;20051;-78
2022/10/30 13:40:17;;;;;;;8.02;3.28;;;29.90;62.00;;;;;;10238402;28;20115;-79
2022/10/30 13:45:42;;;;;;;10.52;4.78;;;31.00;58.60;;;;;;10243591;28;20572;-78
2022/10/30 13:51:20;;;;;;;9.85;2.83;;;31.90;54.30;;;;;;10268713;28;20493;-78
2022/10/30 13:56:23;;;;;;;8.10;3.45;;;32.10;55.00;;;;;;10237930;29;20055;-79
2022/10/30 14:01:31;;;;;;;8.02;2.45;;;31.30;52.80;;;;;;10274951;29;20059;-78
2022/10/30 14:06:46;;;;;;;7.10;2.40;;;30.80;54.00;;;;;;10269790;29;20489;-76
2022/10/30 14:11:48;;;;;;;5.75;2.00;;;30.30;57.40;;;;;;10253738;29;20513;-79
2022/10/30 14:17:14;;;;;;;6.75;2.28;;;29.60;56.60;;;;;;10250943;28;20513;-77
2022/10/30 14:22:24;;;;;;;5.83;1.83;;;29.20;59.20;;;;;;10253138;29;20051;-77
2022/10/30 14:27:29;;;;;;;6.13;2.20;;;29.00;58.60;;;;;;10258888;28;20063;-77
2022/10/30 14:32:50;;;;;;;6.40;2.10;;;29.00;58.80;;;;;;10253066;28;20493;-77
2022/10/30 14:37:57;;;;;;;8.65;2.50;;;28.80;60.40;;;;;;10264566;28;20721;-78
2022/10/30 14:43:06;;;;;;;8.30;2.63;;;28.30;63.40;;;;;;10278104;28;20129;-77
2022/10/30 14:48:19;;;;;;;7.00;2.42;;;27.80;65.30;;;;;;10215014;29;20146;-75
2022/10/30 14:53:35;;;;;;;6.10;2.60;;;27.40;66.20;;;;;;10272181;28;20115;-77
2022/10/30 14:58:38;;;;;;;9.20;3.00;;;27.10;66.30;;;;;;10211388;29;20178;-78
2022/10/30 15:03:54;;;;;;;5.78;2.58;;;26.70;66.90;;;;;;10220355;28;20489;-79
2022/10/30 15:09:26;;;;;;;8.00;2.47;;;26.30;67.00;;;;;;10264390;28;20177;-78
2022/10/30 15:14:32;;;;;;;5.60;2.50;;;25.80;69.20;;;;;;10263945;28;20082;-78
2022/10/30 15:19:35;;;;;;;8.82;2.88;;;25.30;70.60;;;;;;10291862;28;20051;-79
2022/10/30 15:24:40;;;;;;;9.15;2.90;;;24.70;72.30;;;;;;10261702;28;20062;-77
2022/10/30 15:29:49;;;;;;;5.32;2.40;;;24.50;72.40;;;;;;10250002;29;20055;-76
2022/10/30 15:34:56;;;;;;;8.73;2.72;;;24.80;73.80;;;;;;10263415;28;20082;-76
2022/10/30 15:40:18;;;;;;;6.72;2.60;;;24.60;74.80;;;;;;10285253;28;20065;-79
2022/10/30 15:45:24;;;;;;;5.95;2.35;;;24.10;76.20;;;;;;10268369;28;20062;-77
2022/10/30 15:50:26;;;;;;;8.38;2.90;;;23.80;74.60;;;;;;10286613;28;20059;-79
2022/10/30 15:55:31;;;;;;;7.35;2.72;;;23.40;78.30;;;;;;10273054;28;20063;-79
2022/10/30 16:00:36;;;;;;;7.53;3.03;;;23.00;78.60;;;;;;10268920;28;20059;-79
2022/10/30 16:05:38;;;;;;;10.77;4.30;;;22.70;80.70;;;;;;10288190;28;20055;-79
2022/10/30 16:10:43;;;;;;;10.00;3.55;;;22.40;82.90;;;;;;10259541;28;20090;-78
2022/10/30 16:15:48;;;;;;;7.53;3.60;;;22.10;85.60;;;;;;10250134;28;20063;-78
2022/10/30 16:20:53;;;;;;;7.55;3.35;;;21.80;88.40;;;;;;10247475;28;20046;-79
2022/10/30 16:25:59;;;;;;;7.05;2.88;;;21.60;90.00;;;;;;10225944;28;20055;-78
2022/10/30 16:31:04;;;;;;;8.30;3.10;;;21.30;91.00;;;;;;10260801;28;20946;-76
2022/10/30 16:36:11;;;;;;;9.60;3.58;;;21.10;92.10;;;;;;10269862;28;20125;-77
2022/10/30 16:41:14;;;;;;;7.55;3.30;;;21.00;92.20;;;;;;10257091;28;20055;-78
2022/10/30 16:46:46;;;;;;;9.55;3.75;;;20.90;93.00;;;;;;10312261;28;20063;-78
2022/10/30 16:51:56;;;;;;;7.75;3.22;;;20.60;94.10;;;;;;10255326;28;20047;-78
2022/10/30 16:57:02;;;;;;;12.48;2.95;;;20.40;94.70;;;;;;10227208;28;20073;-76
2022/10/30 17:02:15;;;;;;;10.50;2.90;;;20.20;95.20;;;;;;10233187;28;20042;-80
2022/10/30 17:07:20;;;;;;;11.23;3.38;;;20.00;95.80;;;;;;10258600;28;20059;-76
2022/10/30 17:12:25;;;;;;;9.93;3.33;;;19.70;97.00;;;;;;10243407;28;20059;-76
2022/10/30 17:17:31;;;;;;;9.90;3.70;;;19.50;97.50;;;;;;10251883;28;20052;-76
2022/10/30 17:22:33;;;;;;;9.02;3.38;;;19.50;97.30;;;;;;10290782;28;20058;-78
2022/10/30 17:27:43;;;;;;;11.23;4.05;;;19.20;96.40;;;;;;10254438;28;20047;-77
2022/10/30 17:32:45;;;;;;;14.73;5.60;;;19.20;96.70;;;;;;10180194;28;20078;-79
2022/10/30 17:37:47;;;;;;;13.63;6.40;;;19.30;98.10;;;;;;10174498;29;20222;-79
2022/10/30 17:42:51;;;;;;;13.85;5.70;;;19.30;99.90;;;;;;10186883;29;20282;-79
2022/10/30 17:47:53;;;;;;;9.65;4.05;;;19.30;99.90;;;;;;10179195;29;20162;-79
2022/10/30 17:52:56;;;;;;;9.23;4.13;;;19.30;99.40;;;;;;10188842;29;20476;-79
2022/10/30 17:57:59;;;;;;;9.50;3.58;;;19.10;99.60;;;;;;10210690;29;20561;-79
2022/10/30 18:03:03;;;;;;;9.02;3.83;;;18.90;99.80;;;;;;10200025;29;20090;-76
2022/10/30 18:08:05;;;;;;;13.63;5.68;;;18.80;99.90;;;;;;10213344;29;20063;-77
2022/10/30 18:13:09;;;;;;;9.23;4.38;;;18.60;99.90;;;;;;10213952;29;20075;-78
2022/10/30 18:18:12;;;;;;;9.07;4.20;;;18.60;99.90;;;;;;10209011;29;20062;-77
2022/10/30 18:23:19;;;;;;;10.20;3.92;;;18.60;99.90;;;;;;10211770;29;20075;-79
2022/10/30 18:28:22;;;;;;;8.50;3.47;;;18.40;99.90;;;;;;10210086;29;20079;-78
2022/10/30 18:33:25;;;;;;;11.25;3.58;;;18.30;99.80;;;;;;10227262;29;20043;-79
2022/10/30 18:38:27;;;;;;;7.82;3.72;;;17.90;99.90;;;;;;10233901;29;20098;-78
2022/10/30 18:43:30;;;;;;;11.02;4.45;;;17.70;99.90;;;;;;10208422;29;20238;-78
2022/10/30 18:48:32;;;;;;;11.13;3.30;;;17.60;99.90;;;;;;10180169;29;20052;-77
2022/10/30 18:53:34;;;;;;;9.60;4.10;;;17.40;99.90;;;;;;10178372;29;20051;-77
2022/10/30 18:58:37;;;;;;;10.85;4.00;;;17.40;99.90;;;;;;10180271;29;20142;-77
2022/10/30 19:03:39;;;;;;;8.38;4.22;;;17.50;99.90;;;;;;10178772;29;20059;-78
2022/10/30 19:08:41;;;;;;;11.38;5.30;;;17.40;99.90;;;;;;10179387;29;20055;-77
2022/10/30 19:13:45;;;;;;;11.23;4.97;;;17.30;99.90;;;;;;10202550;29;20089;-77
2022/10/30 19:18:48;;;;;;;11.38;5.63;;;17.20;99.90;;;;;;10201902;29;20055;-77
2022/10/30 19:23:50;;;;;;;10.00;5.55;;;17.30;99.90;;;;;;10200228;29;20051;-76
2022/10/30 19:28:53;;;;;;;11.00;5.10;;;17.30;99.90;;;;;;10194393;29;20079;-79
2022/10/30 19:33:55;;;;;;;22.50;10.48;;;17.30;99.90;;;;;;10196877;29;20110;-77
2022/10/30 19:38:57;;;;;;;13.60;5.93;;;17.20;99.90;;;;;;10206583;29;20063;-76
2022/10/30 19:44:01;;;;;;;13.90;4.97;;;17.20;99.90;;;;;;10213021;29;20099;-85
2022/10/30 19:49:16;;;;;;;9.43;3.78;;;17.20;99.90;;;;;;10225923;29;20563;-79
2022/10/30 19:54:18;;;;;;;9.48;4.22;;;17.10;99.90;;;;;;10251222;29;20212;-80
2022/10/30 19:59:21;;;;;;;8.80;3.80;;;17.10;99.90;;;;;;10216263;29;20098;-77
2022/10/30 20:04:23;;;;;;;12.70;4.57;;;17.00;99.90;;;;;;10248123;29;20051;-77
2022/10/30 20:09:24;;;;;;;12.50;4.15;;;16.80;99.90;;;;;;10238102;29;20079;-77
2022/10/30 20:14:28;;;;;;;8.55;3.38;;;16.70;99.90;;;;;;10183493;29;20181;-78
2022/10/30 20:19:31;;;;;;;15.15;5.18;;;16.40;99.90;;;;;;10209179;29;20652;-80
2022/10/30 20:24:33;;;;;;;9.65;4.22;;;16.20;99.90;;;;;;10210481;29;20114;-78
2022/10/30 20:29:43;;;;;;;12.65;4.88;;;16.10;99.90;;;;;;10211024;29;20086;-77
2022/10/30 20:34:45;;;;;;;10.02;4.72;;;16.10;99.90;;;;;;10216760;29;20051;-77
2022/10/30 20:39:49;;;;;;;10.30;4.60;;;16.20;99.90;;;;;;10232711;29;20094;-78
2022/10/30 20:44:52;;;;;;;12.75;5.85;;;16.10;99.90;;;;;;10248419;29;20051;-78
2022/10/30 20:49:54;;;;;;;10.73;5.15;;;16.20;99.90;;;;;;10241709;29;20409;-78
2022/10/30 20:54:56;;;;;;;11.60;4.22;;;16.20;99.90;;;;;;10216164;29;20082;-79
2022/10/30 21:00:00;;;;;;;9.40;4.55;;;16.10;99.90;;;;;;10218799;29;20056;-78
2022/10/30 21:05:02;;;;;;;12.43;5.05;;;16.00;99.90;;;;;;10215135;29;20111;-78
2022/10/30 21:10:05;;;;;;;9.65;4.60;;;15.80;99.90;;;;;;10214717;29;20064;-78
2022/10/30 21:15:09;;;;;;;8.40;4.20;;;15.80;99.90;;;;;;10214546;29;20549;-78
2022/10/30 21:20:11;;;;;;;12.23;4.72;;;15.70;99.90;;;;;;10245528;29;20086;-78
2022/10/30 21:25:13;;;;;;;9.60;4.30;;;15.60;99.90;;;;;;10242229;28;20052;-77
2022/10/30 21:30:17;;;;;;;12.77;5.13;;;15.40;99.90;;;;;;10235443;29;20062;-79
2022/10/30 21:35:19;;;;;;;14.05;5.22;;;15.30;99.90;;;;;;10238659;29;20055;-78
2022/10/30 21:40:21;;;;;;;14.20;6.45;;;15.30;99.90;;;;;;10212825;29;20113;-78
2022/10/30 21:45:24;;;;;;;14.63;5.88;;;15.30;99.90;;;;;;10215174;29;20083;-77
2022/10/30 21:50:26;;;;;;;11.63;5.05;;;15.30;99.90;;;;;;10223328;29;20047;-78
2022/10/30 21:55:28;;;;;;;11.45;5.53;;;15.20;99.90;;;;;;10214367;29;20052;-79
2022/10/30 22:00:31;;;;;;;15.48;6.10;;;15.20;99.90;;;;;;10211678;29;20106;-77
2022/10/30 22:05:33;;;;;;;12.52;5.68;;;15.10;99.90;;;;;;10213675;29;20052;-76
2022/10/30 22:10:35;;;;;;;9.73;5.20;;;15.10;99.90;;;;;;10233092;29;20078;-76
2022/10/30 22:15:38;;;;;;;11.20;5.63;;;14.90;99.90;;;;;;10217656;29;20155;-77
2022/10/30 22:20:40;;;;;;;10.38;5.10;;;14.80;99.90;;;;;;10215546;29;20051;-79
2022/10/30 22:25:42;;;;;;;9.80;4.97;;;14.80;99.90;;;;;;10218930;29;20513;-78
2022/10/30 22:30:45;;;;;;;13.55;5.10;;;14.40;99.90;;;;;;10238820;29;20415;-79
2022/10/30 22:35:47;;;;;;;10.77;4.43;;;14.40;99.90;;;;;;10253655;29;20083;-79
2022/10/30 22:40:49;;;;;;;12.32;4.63;;;14.50;99.90;;;;;;10223416;29;20067;-78
2022/10/30 22:45:55;;;;;;;12.30;6.13;;;14.20;99.90;;;;;;10222117;29;20106;-80
2022/10/30 22:50:58;;;;;;;10.73;4.70;;;14.40;99.90;;;;;;10231821;29;20077;-77
2022/10/30 22:56:10;;;;;;;10.93;4.50;;;14.40;99.90;;;;;;10224972;29;20047;-79
